Flight Track Log - Related Links

Times and Time Zones

All times are in EDT time to prevent confusion due to time zone crossing. See the AWE1640 flight status page for this flight to view local times or setup timezone preferences in your user account.

Time Position Orientation Groundspeed Altitude Reporting Facility
EDT Latitude Longitude Course Direction KTS MPH feet Rate Location/Type
Wed 08:10:07 AM 35.2400 -80.9380 355° North 153 176 2,100  Level FlightAware ADS-B
Wed 08:10:22 AM 35.2500 -80.9370 North 164 189 2,400 1,400 Climbing FlightAware ADS-B
Wed 08:10:37 AM 35.2620 -80.9250 39° Northeast 195 224 2,800 1,800 Climbing FlightAware ADS-B
Wed 08:10:52 AM 35.2670 -80.9090 69° East 215 247 3,300 2,250 Climbing FlightAware ADS-B
Wed 08:11:17 AM 35.2710 -80.8770 81° East 243 280 4,300 2,727 Climbing FlightAware ADS-B
Wed 08:11:47 AM 35.2770 -80.8370 80° East 260 299 5,800 3,100 Climbing FlightAware ADS-B
Wed 08:12:17 AM 35.2840 -80.7900 80° East 264 304 7,400 2,073 Climbing FlightAware ADS-B
Wed 08:12:42 AM 35.2900 -80.7530 79° East 270 311 7,700 750 Climbing FlightAware ADS-B
Wed 08:12:57 AM 35.2930 -80.7330 80° East 270 311 7,900 2,250 Climbing FlightAware ADS-B
Wed 08:13:22 AM 35.2990 -80.6920 80° East 273 314 9,200 2,486 Climbing FlightAware ADS-B
Wed 08:14:07 AM 35.3100 -80.6200 79° East 315 362 10,800 2,188 Climbing FlightAware ADS-B
Wed 08:14:47 AM 35.3210 -80.5450 80° East 345 397 12,300 1,200 Climbing FlightAware ADS-B
Wed 08:15:32 AM 35.3320 -80.4740 79° East 346 398 12,500 141 Climbing FlightAware ADS-B
Wed 08:16:12 AM 35.3430 -80.4080 78° East 346 398 12,500  Level FlightAware ADS-B
Wed 08:16:52 AM 35.3530 -80.3430 79° East 346 398 12,500 4,108 Level FlightAware ADS-B
Wed 08:18:03 AM 35.4214 -80.1772 79° East 388 447 20,100 4,500 Climbing Washington Center
Wed 08:19:04 AM 35.4600 -80.0367 71° East 388 447 22,400 2,067 Climbing Washington Center
Wed 08:20:02 AM 35.4942 -79.9033 72° East 395 455 24,200 1,866 Climbing Washington Center
Wed 08:21:03 AM 35.5281 -79.7675 73° East 406 467 26,100 1,820 Climbing Washington Center
Wed 08:22:04 AM 35.5642 -79.6289 72° East 417 480 27,900 1,488 Climbing Washington Center
Wed 08:23:04 AM 35.6003 -79.4878 72° East 423 487 29,100 168 Climbing Washington Center
Wed 08:28:37 AM 36.0490 -78.9510 72° East 409 471 29,000 -15 Descending FlightAware ADS-B
Wed 08:29:32 AM 36.1370 -78.8860 31° Northeast 407 468 29,000  Level FlightAware ADS-B
Wed 08:30:12 AM 36.2070 -78.8340 31° Northeast 406 467 29,000  Level FlightAware ADS-B
Wed 08:30:57 AM 36.2820 -78.7780 31° Northeast 406 467 29,000 71 Level FlightAware ADS-B
Wed 08:31:37 AM 36.3380 -78.7360 31° Northeast 405 466 29,100 80 Climbing FlightAware ADS-B
Wed 08:32:12 AM 36.3900 -78.6970 31° Northeast 405 466 29,100  Level FlightAware ADS-B
Wed 08:33:02 AM 36.4590 -78.6460 31° Northeast 405 466 29,100 -60 Level FlightAware ADS-B
Wed 08:33:52 AM 36.5650 -78.5660 31° Northeast 444 511 29,000 -67 Descending FlightAware ADS-B
Wed 08:34:32 AM 36.6240 -78.5210 31° Northeast 444 511 29,000  Level FlightAware ADS-B
Wed 08:35:12 AM 36.6840 -78.4760 31° Northeast 444 511 29,000  Level FlightAware ADS-B
Wed 08:36:02 AM 36.7590 -78.4200 31° Northeast 444 511 29,000  Level FlightAware ADS-B
Wed 08:36:42 AM 36.8190 -78.3750 31° Northeast 444 511 29,000  Level FlightAware ADS-B
Wed 08:37:22 AM 36.8790 -78.3300 31° Northeast 444 511 29,000 31 Level FlightAware ADS-B
Wed 08:39:57 AM 37.2040 -78.0790 32° Northeast 438 504 29,100 31 Climbing FlightAware ADS-B
Wed 08:40:37 AM 37.2700 -78.0280 32° Northeast 438 504 29,100  Level FlightAware ADS-B
Wed 08:41:22 AM 37.3490 -77.9670 32° Northeast 435 501 29,100  Level FlightAware ADS-B
Wed 08:42:07 AM 37.4290 -77.9050 32° Northeast 435 501 29,100  Level FlightAware ADS-B
Wed 08:42:47 AM 37.4990 -77.8510 31° Northeast 434 499 29,100  Level FlightAware ADS-B
Wed 08:43:32 AM 37.5710 -77.7900 34° Northeast 434 499 29,100  Level FlightAware ADS-B
Wed 08:44:12 AM 37.6360 -77.7310 36° Northeast 434 499 29,100  Level FlightAware ADS-B
Wed 08:44:57 AM 37.7120 -77.6630 35° Northeast 435 501 29,100  Level FlightAware ADS-B
Wed 08:45:37 AM 37.7770 -77.6030 36° Northeast 435 501 29,100  Level FlightAware ADS-B
Wed 08:46:22 AM 37.8500 -77.5360 36° Northeast 435 501 29,100  Level FlightAware ADS-B
Wed 08:47:02 AM 37.9160 -77.4760 36° Northeast 436 502 29,100  Level FlightAware ADS-B
Wed 08:47:47 AM 37.9890 -77.4090 36° Northeast 436 502 29,100  Level FlightAware ADS-B
Wed 08:48:27 AM 38.0550 -77.3490 36° Northeast 433 498 29,100  Level FlightAware ADS-B
Wed 08:49:07 AM 38.1190 -77.2900 36° Northeast 432 497 29,100  Level FlightAware ADS-B
Wed 08:49:52 AM 38.1940 -77.2210 36° Northeast 432 497 29,100  Level FlightAware ADS-B
Wed 08:50:32 AM 38.2570 -77.1620 36° Northeast 433 498 29,100 -305 Level FlightAware ADS-B
Wed 08:50:51 AM 38.2917 -77.1307 35° Northeast 432 497 28,800 -824 Descending FlightAware ADS-B
Wed 08:51:23 AM 38.3428 -77.0834 36° Northeast 429 494 28,400 -818 Descending FlightAware ADS-B
Wed 08:51:57 AM 38.3940 -77.0360 36° Northeast 427 491 27,900 -1,024 Descending FlightAware ADS-B
Wed 08:52:04 AM 38.4078 -77.0230 36° Northeast 426 490 27,700 -1,050 Descending FlightAware ADS-B
Wed 08:52:37 AM 38.4601 -76.9744 36° Northeast 423 487 27,200 -538 Descending FlightAware ADS-B
Wed 08:53:22 AM 38.5300 -76.9100 36° Northeast 422 486 27,000 -226 Descending FlightAware ADS-B
Wed 08:53:30 AM 38.5434 -76.8968 38° Northeast 422 486 27,000 150 Level FlightAware ADS-B
Wed 08:54:02 AM 38.5920 -76.8510 36° Northeast 420 483 27,100 78 Climbing FlightAware ADS-B
Wed 08:54:47 AM 38.6653 -76.7828 36° Northeast 421 484 27,100  Level FlightAware ADS-B
Wed 08:55:19 AM 38.7146 -76.7345 37° Northeast 423 487 27,100 -95 Level FlightAware ADS-B
Wed 08:55:50 AM 38.7598 -76.6828 42° Northeast 424 488 27,000 -92 Descending FlightAware ADS-B
Wed 08:56:24 AM 38.8105 -76.6245 42° Northeast 426 490 27,000 86 Level FlightAware ADS-B
Wed 08:57:00 AM 38.8617 -76.5653 42° Northeast 422 486 27,100  Climbing FlightAware ADS-B
Wed 08:57:31 AM 38.9079 -76.5120 42° Northeast 422 486 27,000  Descending FlightAware ADS-B
Wed 08:58:02 AM 38.9518 -76.4612 42° Northeast 422 486 27,100  Climbing FlightAware ADS-B
Wed 08:58:33 AM 38.9970 -76.4089 42° Northeast 421 484 27,000  Descending FlightAware ADS-B
Wed 08:59:06 AM 39.0457 -76.3523 42° Northeast 423 487 27,100 91 Climbing FlightAware ADS-B
Wed 08:59:39 AM 39.0934 -76.2968 42° Northeast 422 486 27,100  Level FlightAware ADS-B
Wed 09:00:13 AM 39.1417 -76.2404 42° Northeast 422 486 27,100  Level FlightAware ADS-B
Wed 09:00:45 AM 39.1880 -76.1862 42° Northeast 422 486 27,100 -97 Level FlightAware ADS-B
Wed 09:01:15 AM 39.2315 -76.1353 42° Northeast 422 486 27,000 -98 Descending FlightAware ADS-B
Wed 09:01:46 AM 39.2768 -76.0822 42° Northeast 421 484 27,000 -871 Level FlightAware ADS-B
Wed 09:02:17 AM 39.3214 -76.0298 42° Northeast 416 479 26,100 -1,548 Descending FlightAware ADS-B
Wed 09:02:48 AM 39.3639 -75.9797 42° Northeast 398 458 25,400 -1,452 Descending FlightAware ADS-B
Wed 09:03:19 AM 39.4064 -75.9296 42° Northeast 391 450 24,600 -1,377 Descending FlightAware ADS-B
Wed 09:03:49 AM 39.4464 -75.8823 42° Northeast 388 447 24,000 -1,300 Descending FlightAware ADS-B
Wed 09:04:19 AM 39.4860 -75.8355 42° Northeast 384 442 23,300 -1,364 Descending FlightAware ADS-B
Wed 09:04:55 AM 39.5318 -75.7811 42° Northeast 379 436 22,500 -1,273 Descending FlightAware ADS-B
Wed 09:05:25 AM 39.5705 -75.7353 42° Northeast 369 425 21,900 -1,300 Descending FlightAware ADS-B
Wed 09:05:55 AM 39.6088 -75.6898 42° Northeast 371 427 21,200 -1,377 Descending FlightAware ADS-B
Wed 09:06:26 AM 39.6483 -75.6428 42° Northeast 378 435 20,500 -1,333 Descending FlightAware ADS-B
Wed 09:06:58 AM 39.6889 -75.5943 43° Northeast 379 436 19,800 -1,452 Descending FlightAware ADS-B
Wed 09:07:28 AM 39.7276 -75.5477 43° Northeast 371 427 19,000 -1,645 Descending FlightAware ADS-B
Wed 09:08:00 AM 39.7673 -75.4998 43° Northeast 369 425 18,100 -1,645 Descending FlightAware ADS-B
Wed 09:08:30 AM 39.8049 -75.4545 43° Northeast 367 422 17,300 -1,574 Descending FlightAware ADS-B
Wed 09:09:01 AM 39.8436 -75.4078 43° Northeast 364 419 16,500 -1,574 Descending FlightAware ADS-B
Wed 09:09:31 AM 39.8809 -75.3625 43° Northeast 361 415 15,700 -1,548 Descending FlightAware ADS-B
Wed 09:10:03 AM 39.9187 -75.3168 43° Northeast 356 410 14,900 -1,524 Descending FlightAware ADS-B
Wed 09:10:34 AM 39.9560 -75.2715 43° Northeast 352 405 14,100 -1,548 Descending FlightAware ADS-B
Wed 09:11:05 AM 39.9934 -75.2258 43° Northeast 349 402 13,300 -1,475 Descending FlightAware ADS-B
Wed 09:11:35 AM 40.0286 -75.1829 43° Northeast 342 394 12,600 -1,400 Descending FlightAware ADS-B
Wed 09:12:05 AM 40.0628 -75.1412 43° Northeast 326 375 11,900 -1,377 Descending FlightAware ADS-B
Wed 09:12:36 AM 40.0952 -75.1016 43° Northeast 313 360 11,200 -1,377 Descending FlightAware ADS-B
Wed 09:13:06 AM 40.1271 -75.0625 43° Northeast 301 346 10,500 -1,200 Descending FlightAware ADS-B
Wed 09:13:36 AM 40.1567 -75.0264 43° Northeast 287 330 10,000 -913 Descending FlightAware ADS-B
Wed 09:13:52 AM 40.1715 -75.0082 43° Northeast 283 326 9,800 -968 Descending FlightAware ADS-B
Wed 09:14:07 AM 40.1858 -74.9905 43° Northeast 280 322 9,500 -1,200 Descending FlightAware ADS-B
Wed 09:14:22 AM 40.2000 -74.9732 43° Northeast 277 319 9,200 -1,161 Descending FlightAware ADS-B
Wed 09:14:38 AM 40.2151 -74.9545 43° Northeast 275 316 8,900 -960 Descending FlightAware ADS-B
Wed 09:14:47 AM 40.2233 -74.9445 43° Northeast 274 315 8,800 -857 Descending FlightAware ADS-B
Wed 09:14:52 AM 40.2277 -74.9385 46° Northeast 274 315 8,700 -1,636 Descending FlightAware ADS-B
Wed 09:14:58 AM 40.2325 -74.9308 51° Northeast 273 314 8,500 -2,000 Descending FlightAware ADS-B
Wed 09:15:01 AM 40.2347 -74.9266 56° Northeast 272 313 8,400 -1,500 Descending FlightAware ADS-B
Wed 09:15:10 AM 40.2405 -74.9140 59° Northeast 272 313 8,200 -1,440 Descending FlightAware ADS-B
Wed 09:15:26 AM 40.2503 -74.8916 60° Northeast 269 310 7,800 -1,091 Descending FlightAware ADS-B
Wed 09:15:43 AM 40.2609 -74.8672 60° Northeast 269 310 7,600 -545 Descending FlightAware ADS-B
Wed 09:15:59 AM 40.2707 -74.8449 60° Northeast 271 312 7,500 -188 Descending FlightAware ADS-B
Wed 09:16:15 AM 40.2806 -74.8221 60° Northeast 271 312 7,500  Level FlightAware ADS-B
Wed 09:16:27 AM 40.2880 -74.8050 60° Northeast 270 311 7,500 222 Level FlightAware ADS-B
Wed 09:16:42 AM 40.2973 -74.7834 61° Northeast 269 310 7,600 -200 Climbing FlightAware ADS-B
Wed 09:16:57 AM 40.3065 -74.7623 60° Northeast 266 306 7,400 -968 Descending FlightAware ADS-B
Wed 09:17:13 AM 40.3162 -74.7400 60° Northeast 260 299 7,100 -774 Descending FlightAware ADS-B
Wed 09:17:28 AM 40.3251 -74.7193 61° Northeast 251 289 7,000 -774 Descending FlightAware ADS-B
Wed 09:17:44 AM 40.3339 -74.6989 60° Northeast 245 282 6,700 -1,161 Descending FlightAware ADS-B
Wed 09:17:59 AM 40.3423 -74.6796 60° Northeast 241 277 6,400 -1,400 Descending FlightAware ADS-B
Wed 09:18:14 AM 40.3505 -74.6605 61° Northeast 241 277 6,000 -1,600 Descending FlightAware ADS-B
Wed 09:18:29 AM 40.3590 -74.6411 60° Northeast 241 277 5,600 -1,548 Descending FlightAware ADS-B
Wed 09:18:45 AM 40.3676 -74.6212 60° Northeast 239 275 5,200 -1,161 Descending FlightAware ADS-B
Wed 09:19:00 AM 40.3757 -74.6025 60° Northeast 232 267 5,000 -581 Descending FlightAware ADS-B
Wed 09:19:16 AM 40.3842 -74.5829 60° Northeast 223 257 4,900 -600 Descending FlightAware ADS-B
Wed 09:19:30 AM 40.3909 -74.5672 61° Northeast 215 247 4,700 -600 Descending FlightAware ADS-B
Wed 09:19:46 AM 40.3987 -74.5494 60° Northeast 214 246 4,600 -364 Descending FlightAware ADS-B
Wed 09:20:03 AM 40.4070 -74.5303 60° Northeast 211 243 4,500  Descending FlightAware ADS-B
Wed 09:20:18 AM 40.4140 -74.5137 61° Northeast 199 229 4,600 194 Climbing FlightAware ADS-B
Wed 09:20:34 AM 40.4212 -74.4969 61° Northeast 194 223 4,600 -182 Level FlightAware ADS-B
Wed 09:20:51 AM 40.4284 -74.4799 61° Northeast 192 221 4,500 -188 Descending FlightAware ADS-B
Wed 09:21:06 AM 40.4350 -74.4646 60° Northeast 192 221 4,500  Level FlightAware ADS-B
Wed 09:21:23 AM 40.4426 -74.4468 61° Northeast 192 221 4,500 167 Level FlightAware ADS-B
Wed 09:21:42 AM 40.4504 -74.4288 60° Northeast 183 211 4,600  Climbing FlightAware ADS-B
Wed 09:21:50 AM 40.4540 -74.4202 61° Northeast 181 208 4,500 -545 Descending FlightAware ADS-B
Wed 09:21:53 AM 40.4548 -74.4181 63° Northeast 181 208 4,500 -800 Level FlightAware ADS-B
Wed 09:22:05 AM 40.4593 -74.4053 65° Northeast 180 207 4,300 -1,034 Descending FlightAware ADS-B
Wed 09:22:22 AM 40.4648 -74.3887 66° East 179 206 4,000 -947 Descending FlightAware ADS-B
Wed 09:22:43 AM 40.4727 -74.3696 61° Northeast 181 208 3,700 -818 Descending FlightAware ADS-B
Wed 09:22:44 AM 40.4735 -74.3681 55° Northeast 172 198 3,700 -1,125 Level FlightAware ADS-B
Wed 09:22:59 AM 40.4799 -74.3555 56° Northeast 172 198 3,400 -1,000 Descending FlightAware ADS-B
Wed 09:23:02 AM 40.4812 -74.3528 58° Northeast 173 199 3,400 -1,125 Level FlightAware ADS-B
Wed 09:23:15 AM 40.4871 -74.3409 57° Northeast 172 198 3,100 -1,059 Descending FlightAware ADS-B
Wed 09:23:19 AM 40.4887 -74.3375 58° Northeast 171 197 3,100 -667 Level FlightAware ADS-B
Wed 09:23:33 AM 40.4947 -74.3253 57° Northeast 169 194 2,900 -882 Descending FlightAware ADS-B
Wed 09:23:53 AM 40.5032 -74.3081 57° Northeast 168 193 2,600 -750 Descending FlightAware ADS-B
Wed 09:23:57 AM 40.5050 -74.3044 57° Northeast 170 196 2,600  Level FlightAware ADS-B
Wed 09:24:03 AM 40.5074 -74.2997 56° Northeast 161 185 2,600  Level FlightAware ADS-B
Wed 09:24:17 AM 40.5133 -74.2878 57° Northeast 165 190 2,600  Level FlightAware ADS-B
Wed 09:24:36 AM 40.5225 -74.2740 49° Northeast 163 188 2,600 -250 Level FlightAware ADS-B
Wed 09:24:41 AM 40.5256 -74.2712 34° Northeast 164 189 2,500 -400 Descending FlightAware ADS-B
Wed 09:24:51 AM 40.5325 -74.2664 28° Northeast 165 190 2,500  Level FlightAware ADS-B
Wed 09:25:06 AM 40.5427 -74.2597 27° Northeast 164 189 2,500 -279 Level FlightAware ADS-B
Wed 09:25:34 AM 40.5623 -74.2474 25° Northeast 159 183 2,300 -682 Descending FlightAware ADS-B
Wed 09:25:50 AM 40.5725 -74.2410 25° Northeast 163 188 2,000 -968 Descending FlightAware ADS-B
Wed 09:26:05 AM 40.5824 -74.2346 26° Northeast 153 176 1,800 -882 Descending FlightAware ADS-B
Wed 09:26:24 AM 40.5942 -74.2272 25° Northeast 138 159 1,500 -750 Descending FlightAware ADS-B
Wed 09:26:45 AM 40.6054 -74.2200 26° Northeast 125 144 1,300 -667 Descending FlightAware ADS-B
Wed 09:27:00 AM 40.6133 -74.2150 26° Northeast 121 139 1,100 -774 Descending FlightAware ADS-B
Wed 09:27:16 AM 40.6215 -74.2099 25° Northeast 123 142 900 -563 Descending FlightAware ADS-B
Wed 09:27:32 AM 40.6294 -74.2047 27° Northeast 122 140 800 -545 Descending FlightAware ADS-B
Wed 09:27:49 AM 40.6380 -74.1993 25° Northeast 119 137 600 -750 Descending FlightAware ADS-B
Wed 09:28:04 AM 40.6457 -74.1945 25° Northeast 122 140 400 -720 Descending FlightAware ADS-B
Wed 09:28:14 AM 40.6506 -74.1914 26° Northeast 125 144 300 -720 Descending FlightAware ADS-B
Wed 09:28:29 AM 40.6584 -74.1864 26° Northeast 123 142 100 -800 Descending FlightAware ADS-B

Login

Don't have an account? Register now (free) for customized features, flight alerts, and more!